createdAt,value
2018-07-02T00:00:50.406Z,5.37
2018-07-02T00:03:18.521Z,5.87
2018-07-02T00:05:57.826Z,5.30
2018-07-02T00:08:26.080Z,4.97
2018-07-02T00:10:54.365Z,5.47
2018-07-02T00:13:22.741Z,5.43
2018-07-02T00:15:51.117Z,6.93
2018-07-02T00:18:19.537Z,5.30
2018-07-02T00:20:47.968Z,6.20
2018-07-02T00:23:16.244Z,5.63
2018-07-02T00:25:44.879Z,6.67
2018-07-02T00:28:13.205Z,6.80
2018-07-02T00:30:41.489Z,5.97
2018-07-02T00:33:09.915Z,6.40
2018-07-02T00:35:37.438Z,5.90
2018-07-02T00:38:05.796Z,5.67
2018-07-02T00:40:34.086Z,5.47
2018-07-02T00:43:02.361Z,6.87
2018-07-02T00:45:30.842Z,6.97
2018-07-02T00:47:59.218Z,5.83
2018-07-02T00:50:27.588Z,6.37
2018-07-02T00:52:56.104Z,6.30
2018-07-02T00:55:24.146Z,8.57
2018-07-02T00:57:52.529Z,6.03
2018-07-02T01:00:20.838Z,6.17
2018-07-02T01:02:48.877Z,6.67
2018-07-02T01:05:17.128Z,7.67
2018-07-02T01:07:45.534Z,6.40
2018-07-02T01:10:14.080Z,6.00
2018-07-02T01:12:42.269Z,7.90
2018-07-02T01:15:10.649Z,5.80
2018-07-02T01:17:39.062Z,6.60
2018-07-02T01:20:07.564Z,5.57
2018-07-02T01:22:35.885Z,6.07
2018-07-02T01:25:04.382Z,5.93
2018-07-02T01:27:33.858Z,6.87
2018-07-02T01:30:03.095Z,7.93
2018-07-02T01:32:31.436Z,6.43
2018-07-02T01:34:59.612Z,5.83
2018-07-02T01:37:28.021Z,6.93
2018-07-02T01:39:56.261Z,6.83
2018-07-02T01:42:24.564Z,6.37
2018-07-02T01:44:52.856Z,6.50
2018-07-02T01:47:21.197Z,6.20
2018-07-02T01:49:49.568Z,5.90
2018-07-02T01:52:18.004Z,7.80
2018-07-02T01:54:46.429Z,7.43
2018-07-02T01:57:14.773Z,6.13
2018-07-02T01:59:43.234Z,8.47
2018-07-02T02:02:11.562Z,6.23
2018-07-02T02:04:39.851Z,7.93
2018-07-02T02:07:08.358Z,6.37
2018-07-02T02:09:36.710Z,6.83
2018-07-02T02:12:04.746Z,6.40
2018-07-02T02:14:33.088Z,7.20
2018-07-02T02:17:01.426Z,7.63
2018-07-02T02:19:29.818Z,10.40
2018-07-02T02:21:58.230Z,6.63
2018-07-02T02:24:26.566Z,7.77
2018-07-02T02:26:54.941Z,9.37
2018-07-02T02:29:23.261Z,6.13
2018-07-02T02:31:51.597Z,6.63
2018-07-02T02:34:19.960Z,5.67
2018-07-02T02:36:48.486Z,6.83
2018-07-02T02:39:16.785Z,7.20
2018-07-02T02:41:45.109Z,8.13
2018-07-02T02:44:13.374Z,9.47
2018-07-02T02:46:41.649Z,7.20
2018-07-02T02:49:10.067Z,6.83
2018-07-02T02:51:38.497Z,6.33
2018-07-02T02:54:06.673Z,7.00
2018-07-02T02:56:34.990Z,7.20
2018-07-02T02:59:03.334Z,6.53
2018-07-02T03:01:31.709Z,6.80
2018-07-02T03:04:00.124Z,7.63
2018-07-02T03:06:28.433Z,7.80
2018-07-02T03:08:56.945Z,9.90
2018-07-02T03:11:25.325Z,8.00
2018-07-02T03:13:53.635Z,8.33
2018-07-02T03:16:21.974Z,7.57
2018-07-02T03:18:50.249Z,8.43
2018-07-02T03:21:18.652Z,8.60
2018-07-02T03:23:47.009Z,8.17
2018-07-02T03:26:15.391Z,8.50
2018-07-02T03:28:43.808Z,8.53
2018-07-02T03:31:12.041Z,8.43
2018-07-02T03:33:40.313Z,8.13
2018-07-02T03:36:08.633Z,8.03
2018-07-02T03:38:37.079Z,13.03
2018-07-02T03:41:05.555Z,9.37
2018-07-02T03:43:33.978Z,8.63
2018-07-02T03:46:02.302Z,9.83
2018-07-02T03:48:30.693Z,9.77
2018-07-02T03:50:59.173Z,7.57
2018-07-02T03:53:27.559Z,10.57
2018-07-02T03:55:55.930Z,6.67
2018-07-02T03:58:24.405Z,9.40
2018-07-02T04:00:52.773Z,7.73
2018-07-02T04:03:21.053Z,8.13
2018-07-02T04:05:49.225Z,12.37
2018-07-02T04:08:17.498Z,9.07
2018-07-02T04:10:45.981Z,8.73
2018-07-02T04:13:14.051Z,10.40
2018-07-02T04:15:42.572Z,12.53
2018-07-02T04:18:10.700Z,12.13
2018-07-02T04:20:38.745Z,14.70
2018-07-02T04:23:07.870Z,14.27
2018-07-02T04:25:36.283Z,10.03
2018-07-02T04:28:04.334Z,9.77
2018-07-02T04:30:32.602Z,11.40
2018-07-02T04:33:00.989Z,9.80
2018-07-02T04:35:29.493Z,9.83
2018-07-02T04:37:57.930Z,12.27
2018-07-02T04:40:26.309Z,11.03
2018-07-02T04:42:54.619Z,10.53
2018-07-02T04:45:22.953Z,10.30
2018-07-02T04:47:51.229Z,11.07
2018-07-02T04:50:19.618Z,10.80
2018-07-02T04:52:47.892Z,11.53
2018-07-02T04:55:16.165Z,10.90
2018-07-02T04:57:44.579Z,13.27
2018-07-02T05:00:13.026Z,11.07
2018-07-02T05:02:41.401Z,10.93
2018-07-02T05:05:09.717Z,10.50
2018-07-02T05:07:38.083Z,10.77
2018-07-02T05:10:06.442Z,10.77
2018-07-02T05:12:34.852Z,10.30
2018-07-02T05:15:03.389Z,9.80
2018-07-02T05:17:31.665Z,9.87
2018-07-02T05:19:59.773Z,12.20
2018-07-02T05:22:28.221Z,10.90
2018-07-02T05:24:56.605Z,10.47
2018-07-02T05:27:24.989Z,9.03
2018-07-02T05:29:53.249Z,9.40
2018-07-02T05:32:21.434Z,9.77
2018-07-02T05:34:49.697Z,10.17
2018-07-02T05:37:17.885Z,8.93
2018-07-02T05:39:46.358Z,8.37
2018-07-02T05:42:14.624Z,8.93
2018-07-02T05:44:42.892Z,11.03
2018-07-02T05:47:11.186Z,9.93
2018-07-02T05:49:39.451Z,9.37
2018-07-02T05:52:07.726Z,10.33
2018-07-02T05:54:36.013Z,10.40
2018-07-02T05:57:04.386Z,11.77
2018-07-02T05:59:32.757Z,10.10
2018-07-02T06:02:01.210Z,10.13
2018-07-02T06:04:29.302Z,16.63
2018-07-02T06:06:57.697Z,12.17
2018-07-02T06:09:25.813Z,11.83
2018-07-02T06:11:54.144Z,12.57
2018-07-02T06:14:22.527Z,14.80
2018-07-02T06:16:51.093Z,15.97
2018-07-02T06:19:19.474Z,17.93
2018-07-02T06:21:47.871Z,18.47
2018-07-02T06:24:16.130Z,21.73
2018-07-02T06:26:44.311Z,21.70
2018-07-02T06:29:12.474Z,22.87
2018-07-02T06:31:40.758Z,20.93
2018-07-02T06:34:09.026Z,22.67
2018-07-02T06:36:37.201Z,20.83
2018-07-02T06:39:08.025Z,19.43
2018-07-02T06:41:36.315Z,21.17
2018-07-02T06:44:04.530Z,18.43
2018-07-02T06:46:32.963Z,19.90
2018-07-02T06:49:01.745Z,18.17
2018-07-02T06:51:30.154Z,17.67
2018-07-02T06:53:58.514Z,18.60
2018-07-02T06:56:26.417Z,14.07
2018-07-02T06:58:54.758Z,15.00
2018-07-02T07:01:23.125Z,14.60
2018-07-02T07:03:51.338Z,12.00
2018-07-02T07:06:19.787Z,12.00
2018-07-02T07:08:48.061Z,11.87
2018-07-02T07:11:16.342Z,11.53
2018-07-02T07:13:44.822Z,11.90
2018-07-02T07:16:12.982Z,11.83
2018-07-02T07:18:41.161Z,11.93
2018-07-02T07:21:09.439Z,11.63
2018-07-02T07:23:37.714Z,12.43
2018-07-02T07:26:05.994Z,13.00
2018-07-02T07:28:34.261Z,16.67
2018-07-02T07:31:02.533Z,15.47
2018-07-02T07:33:30.801Z,16.33
2018-07-02T07:35:58.841Z,17.07
2018-07-02T07:38:27.045Z,15.67
2018-07-02T07:40:55.427Z,18.40
2018-07-02T07:43:23.865Z,15.63
2018-07-02T07:45:52.294Z,15.13
2018-07-02T07:48:20.245Z,17.20
2018-07-02T07:50:48.542Z,17.13
2018-07-02T07:53:16.658Z,15.20
2018-07-02T07:55:44.873Z,14.80
2018-07-02T07:58:13.353Z,14.07
2018-07-02T08:00:41.438Z,17.40
2018-07-02T08:03:09.802Z,15.23
2018-07-02T08:05:38.836Z,13.33
2018-07-02T08:08:07.176Z,13.53
2018-07-02T08:10:35.435Z,15.80
2018-07-02T08:13:03.726Z,14.77
2018-07-02T08:15:32.035Z,15.47
2018-07-02T08:18:00.466Z,16.17
2018-07-02T08:20:28.857Z,14.97
2018-07-02T08:22:57.145Z,14.40
2018-07-02T08:25:25.443Z,13.37
2018-07-02T08:27:53.801Z,12.97
2018-07-02T08:30:22.160Z,13.00
2018-07-02T08:32:50.487Z,13.00
2018-07-02T08:35:19.072Z,13.10
2018-07-02T08:37:47.502Z,12.73
2018-07-02T08:40:15.990Z,12.47
2018-07-02T08:42:44.297Z,11.03
2018-07-02T08:45:12.633Z,13.00
2018-07-02T08:47:40.816Z,12.73
2018-07-02T08:50:08.734Z,12.77
2018-07-02T08:52:36.679Z,12.50
2018-07-02T08:55:05.068Z,14.00
2018-07-02T08:57:33.309Z,13.20
2018-07-02T09:00:01.790Z,12.87
2018-07-02T09:02:30.253Z,13.27
2018-07-02T09:04:58.433Z,13.50
2018-07-02T09:07:26.819Z,11.67
2018-07-02T09:09:55.081Z,12.67
2018-07-02T09:12:23.366Z,12.10
2018-07-02T09:14:51.864Z,11.03
2018-07-02T09:17:20.185Z,10.67
2018-07-02T09:19:48.900Z,11.70
2018-07-02T09:22:17.181Z,11.20
2018-07-02T09:24:45.677Z,11.10
2018-07-02T09:27:14.037Z,10.53
2018-07-02T09:29:42.410Z,10.80
2018-07-02T09:32:10.312Z,9.77
2018-07-02T09:34:38.662Z,11.47
2018-07-02T09:37:06.937Z,11.13
2018-07-02T09:39:35.214Z,9.97
2018-07-02T09:42:03.379Z,11.17
2018-07-02T09:44:31.577Z,14.70
2018-07-02T09:47:00.039Z,9.47
2018-07-02T09:49:28.441Z,10.93
2018-07-02T09:51:56.793Z,9.40
2018-07-02T09:54:25.072Z,9.40
2018-07-02T09:56:53.651Z,16.30
2018-07-02T09:59:21.826Z,10.37
2018-07-02T10:01:50.202Z,9.17
2018-07-02T10:04:18.106Z,11.23
2018-07-02T10:06:46.446Z,9.37
2018-07-02T10:09:14.589Z,11.77
2018-07-02T10:11:42.894Z,9.73
2018-07-02T10:14:11.066Z,10.33
2018-07-02T10:16:39.447Z,10.00
2018-07-02T10:19:07.822Z,10.27
2018-07-02T10:21:36.301Z,18.03
2018-07-02T10:24:04.785Z,10.47
2018-07-02T10:26:33.045Z,14.90
2018-07-02T10:29:01.375Z,12.53
2018-07-02T10:31:29.641Z,12.37
2018-07-02T10:33:58.094Z,9.17
2018-07-02T10:36:26.459Z,9.30
2018-07-02T10:38:54.734Z,10.57
2018-07-02T10:41:23.214Z,9.73
2018-07-02T10:43:51.602Z,9.67
2018-07-02T10:46:19.997Z,9.13
2018-07-02T10:48:48.383Z,12.67
2018-07-02T10:51:16.736Z,10.03
2018-07-02T10:53:45.035Z,9.17
2018-07-02T10:56:13.688Z,10.33
2018-07-02T10:58:41.780Z,9.70
2018-07-02T11:01:10.237Z,10.43
2018-07-02T11:03:38.408Z,9.37
2018-07-02T11:06:06.602Z,9.30
2018-07-02T11:08:34.862Z,9.27
2018-07-02T11:11:03.252Z,10.47
2018-07-02T11:13:31.730Z,8.97
2018-07-02T11:16:00.102Z,10.07
2018-07-02T11:18:28.360Z,9.40
2018-07-02T11:20:56.754Z,9.70
2018-07-02T11:23:25.023Z,8.67
2018-07-02T11:25:53.296Z,8.80
2018-07-02T11:28:21.574Z,9.27
2018-07-02T11:30:50.053Z,9.70
2018-07-02T11:33:18.329Z,10.63
2018-07-02T11:35:46.637Z,9.80
2018-07-02T11:38:14.882Z,11.17
2018-07-02T11:40:43.154Z,10.50
2018-07-02T11:43:11.448Z,9.90
2018-07-02T11:45:39.825Z,10.60
2018-07-02T11:48:08.193Z,11.23
2018-07-02T11:50:36.473Z,10.73
2018-07-02T11:53:04.623Z,10.83
2018-07-02T11:55:33.022Z,10.37
2018-07-02T11:58:01.517Z,11.17
2018-07-02T12:00:29.890Z,9.53
2018-07-02T12:02:58.153Z,11.17
2018-07-02T12:05:26.438Z,10.40
2018-07-02T12:07:54.914Z,14.70
2018-07-02T12:10:23.290Z,11.47
2018-07-02T12:12:51.669Z,14.20
2018-07-02T12:15:19.876Z,11.47
2018-07-02T12:17:48.431Z,12.30
2018-07-02T12:20:16.799Z,12.20
2018-07-02T12:22:45.191Z,12.30
2018-07-02T12:25:13.453Z,11.67
2018-07-02T12:27:41.739Z,11.57
2018-07-02T12:30:10.110Z,9.80
2018-07-02T12:32:38.585Z,11.43
2018-07-02T12:35:06.967Z,10.87
2018-07-02T12:37:35.342Z,10.07
2018-07-02T12:40:03.671Z,10.57
2018-07-02T12:42:31.993Z,10.70
2018-07-02T12:45:00.261Z,9.73
2018-07-02T12:47:28.549Z,8.43
2018-07-02T12:49:56.921Z,8.67
2018-07-02T12:52:25.405Z,8.87
2018-07-02T12:54:53.480Z,9.70
2018-07-02T12:57:21.962Z,8.60
2018-07-02T12:59:50.330Z,8.60
2018-07-02T13:02:18.843Z,11.17
2018-07-02T13:04:47.286Z,9.60
2018-07-02T13:07:15.679Z,10.17
2018-07-02T13:09:44.287Z,9.53
2018-07-02T13:12:12.739Z,10.43
2018-07-02T13:14:40.982Z,9.10
2018-07-02T13:17:09.386Z,9.60
2018-07-02T13:19:37.654Z,9.40
2018-07-02T13:22:05.929Z,9.10
2018-07-02T13:24:34.206Z,9.23
2018-07-02T13:27:02.600Z,8.83
2018-07-02T13:29:30.859Z,9.00
2018-07-02T13:31:59.246Z,8.47
2018-07-02T13:34:27.822Z,8.63
2018-07-02T13:36:56.089Z,9.07
2018-07-02T13:39:24.282Z,8.57
2018-07-02T13:41:52.553Z,9.97
2018-07-02T13:44:20.742Z,9.87
2018-07-02T13:46:49.198Z,10.20
2018-07-02T13:49:17.365Z,9.40
2018-07-02T13:51:45.747Z,9.40
2018-07-02T13:54:14.003Z,9.37
2018-07-02T13:56:42.293Z,9.10
2018-07-02T13:59:10.473Z,9.03
2018-07-02T14:01:38.858Z,9.40
2018-07-02T14:04:06.838Z,9.27
2018-07-02T14:06:34.802Z,8.73
2018-07-02T14:09:04.297Z,9.10
2018-07-02T14:11:32.351Z,13.63
2018-07-02T14:14:00.390Z,9.57
2018-07-02T14:16:28.305Z,9.27
2018-07-02T14:18:56.345Z,8.63
2018-07-02T14:21:24.304Z,9.27
2018-07-02T14:23:52.193Z,8.57
2018-07-02T14:26:20.131Z,8.27
2018-07-02T14:28:48.594Z,9.50
2018-07-02T14:31:16.513Z,8.30
2018-07-02T14:33:44.390Z,8.83
2018-07-02T14:36:12.325Z,8.10
2018-07-02T14:38:40.222Z,10.80
2018-07-02T14:41:08.143Z,8.33
2018-07-02T14:43:36.308Z,7.90
2018-07-02T14:46:04.234Z,10.27
2018-07-02T14:48:32.124Z,9.60
2018-07-02T14:51:00.141Z,10.87
2018-07-02T14:53:28.031Z,9.93
2018-07-02T14:55:55.901Z,9.73
2018-07-02T14:58:23.870Z,15.57
2018-07-02T15:00:51.767Z,9.40
2018-07-02T15:03:19.658Z,9.00
2018-07-02T15:05:47.551Z,9.87
2018-07-02T15:08:15.444Z,9.73
2018-07-02T15:10:43.327Z,10.40
2018-07-02T15:13:11.269Z,9.17
2018-07-02T15:15:39.243Z,10.10
2018-07-02T15:18:07.216Z,9.10
2018-07-02T15:20:35.182Z,8.67
2018-07-02T15:23:03.309Z,8.53
2018-07-02T15:25:31.183Z,9.57
2018-07-02T15:27:59.208Z,8.93
2018-07-02T15:30:27.113Z,9.63
2018-07-02T15:32:55.113Z,9.50
2018-07-02T15:35:22.981Z,9.33
2018-07-02T15:37:50.870Z,8.30
2018-07-02T15:40:18.830Z,7.53
2018-07-02T15:42:46.724Z,7.83
2018-07-02T15:45:14.645Z,7.80
2018-07-02T15:47:42.605Z,8.60
2018-07-02T15:50:10.512Z,7.93
2018-07-02T15:52:38.392Z,7.83
2018-07-02T15:55:06.293Z,8.87
2018-07-02T15:57:34.373Z,7.70
2018-07-02T16:00:02.314Z,7.90
2018-07-02T16:02:30.231Z,7.87
2018-07-02T16:04:58.180Z,8.10
2018-07-02T16:07:26.116Z,8.03
2018-07-02T16:09:54.068Z,8.07
2018-07-02T16:12:21.995Z,9.73
2018-07-02T16:14:49.929Z,11.40
2018-07-02T16:17:17.815Z,9.87
2018-07-02T16:19:45.716Z,13.33
2018-07-02T16:22:13.630Z,12.30
2018-07-02T16:24:41.530Z,8.50
2018-07-02T16:27:09.507Z,12.33
2018-07-02T16:29:37.562Z,11.13
2018-07-02T16:32:05.529Z,11.90
2018-07-02T16:34:33.482Z,12.47
2018-07-02T16:37:01.419Z,10.90
2018-07-02T16:39:29.390Z,10.23
2018-07-02T16:41:57.410Z,9.87
2018-07-02T16:44:25.649Z,10.00
2018-07-02T16:46:53.677Z,8.57
2018-07-02T16:49:21.666Z,11.80
2018-07-02T16:51:49.725Z,10.53
2018-07-02T16:54:17.630Z,9.43
2018-07-02T16:56:45.622Z,9.37
2018-07-02T16:59:13.484Z,11.50
2018-07-02T17:01:41.366Z,11.30
2018-07-02T17:04:09.313Z,9.83
2018-07-02T17:06:37.297Z,12.40
2018-07-02T17:09:08.598Z,12.27
2018-07-02T17:11:36.878Z,13.50
2018-07-02T17:14:04.874Z,12.00
2018-07-02T17:16:32.781Z,21.13
2018-07-02T17:19:00.875Z,14.70
2018-07-02T17:21:28.817Z,12.00
2018-07-02T17:23:56.755Z,12.00
2018-07-02T17:26:24.677Z,10.47
2018-07-02T17:28:52.748Z,10.73
2018-07-02T17:31:20.727Z,11.77
2018-07-02T17:33:48.646Z,10.27
2018-07-02T17:36:16.608Z,11.17
2018-07-02T17:38:44.506Z,15.53
2018-07-02T17:41:12.470Z,30.83
2018-07-02T17:43:40.449Z,16.50
2018-07-02T17:46:08.409Z,15.13
2018-07-02T17:48:36.321Z,14.60
2018-07-02T17:51:04.273Z,17.67
2018-07-02T17:53:32.205Z,19.93
2018-07-02T17:56:00.498Z,15.20
2018-07-02T17:58:28.443Z,16.53
2018-07-02T18:00:56.385Z,23.27
2018-07-02T18:03:24.375Z,20.77
2018-07-02T18:05:52.276Z,30.30
2018-07-02T18:08:20.238Z,18.43
2018-07-02T18:10:48.159Z,16.53
2018-07-02T18:13:16.084Z,14.87
2018-07-02T18:15:44.007Z,14.37
2018-07-02T18:18:11.882Z,13.07
2018-07-02T18:20:39.853Z,18.83
2018-07-02T18:23:07.765Z,13.77
2018-07-02T18:25:35.680Z,13.07
2018-07-02T18:28:03.682Z,15.07
2018-07-02T18:30:31.653Z,12.17
2018-07-02T18:32:59.549Z,12.03
2018-07-02T18:35:28.042Z,11.43
2018-07-02T18:37:56.449Z,12.60
2018-07-02T18:40:24.694Z,11.93
2018-07-02T18:42:53.091Z,12.97
2018-07-02T18:45:21.437Z,13.67
2018-07-02T18:47:49.706Z,14.00
2018-07-02T18:50:18.310Z,13.23
2018-07-02T18:52:46.672Z,12.47
2018-07-02T18:55:15.063Z,14.60
2018-07-02T18:57:43.341Z,12.90
2018-07-02T19:00:11.822Z,12.33
2018-07-02T19:02:40.034Z,12.43
2018-07-02T19:05:08.377Z,13.90
2018-07-02T19:07:36.837Z,12.83
2018-07-02T19:10:05.733Z,19.70
2018-07-02T19:12:34.317Z,12.93
2018-07-02T19:15:02.585Z,13.83
2018-07-02T19:17:31.074Z,13.03
2018-07-02T19:19:59.324Z,14.33
2018-07-02T19:22:27.627Z,15.77
2018-07-02T19:24:55.799Z,12.53
2018-07-02T19:27:24.065Z,13.57
2018-07-02T19:29:52.479Z,13.57
2018-07-02T19:32:20.718Z,13.87
2018-07-02T19:34:49.921Z,14.80
2018-07-02T19:37:18.190Z,14.10
2018-07-02T19:39:46.578Z,13.60
2018-07-02T19:42:14.966Z,16.57
2018-07-02T19:44:43.221Z,14.13
2018-07-02T19:47:11.526Z,14.17
2018-07-02T19:49:39.835Z,12.47
2018-07-02T19:52:08.058Z,13.23
2018-07-02T19:54:36.329Z,12.83
2018-07-02T19:57:04.627Z,13.50
2018-07-02T19:59:33.177Z,16.70
2018-07-02T20:02:01.573Z,14.07
2018-07-02T20:04:29.743Z,14.40
2018-07-02T20:06:58.189Z,15.70
2018-07-02T20:09:26.395Z,17.67
2018-07-02T20:11:54.394Z,14.83
2018-07-02T20:14:22.841Z,13.07
2018-07-02T20:16:51.248Z,12.73
2018-07-02T20:19:19.209Z,12.60
2018-07-02T20:21:47.663Z,12.80
2018-07-02T20:24:15.939Z,12.73
2018-07-02T20:26:44.418Z,12.63
2018-07-02T20:29:12.669Z,13.03
2018-07-02T20:31:40.977Z,13.00
2018-07-02T20:34:09.344Z,13.80
2018-07-02T20:36:37.723Z,12.77
2018-07-02T20:39:08.248Z,12.87
2018-07-02T20:41:36.531Z,13.03
2018-07-02T20:44:04.801Z,13.03
2018-07-02T20:46:33.301Z,13.73
2018-07-02T20:49:01.618Z,13.33
2018-07-02T20:51:29.949Z,13.07
2018-07-02T20:53:58.330Z,13.63
2018-07-02T20:56:26.706Z,13.43
2018-07-02T20:58:54.973Z,13.70
2018-07-02T21:01:23.345Z,14.20
2018-07-02T21:03:51.838Z,14.20
2018-07-02T21:06:20.305Z,14.67
2018-07-02T21:08:48.585Z,15.60
2018-07-02T21:11:16.762Z,13.67
2018-07-02T21:13:45.130Z,13.97
2018-07-02T21:16:13.518Z,13.93
2018-07-02T21:18:41.794Z,14.27
2018-07-02T21:21:09.856Z,15.00
2018-07-02T21:23:38.241Z,14.87
2018-07-02T21:26:06.722Z,13.97
2018-07-02T21:28:34.650Z,14.70
2018-07-02T21:31:03.012Z,14.73
2018-07-02T21:33:31.333Z,14.77
2018-07-02T21:35:59.260Z,14.77
2018-07-02T21:38:27.477Z,13.97
2018-07-02T21:40:55.786Z,14.57
2018-07-02T21:43:24.137Z,14.50
2018-07-02T21:45:52.746Z,15.33
2018-07-02T21:48:21.158Z,15.40
2018-07-02T21:50:49.375Z,14.63
2018-07-02T21:53:17.743Z,14.90
2018-07-02T21:55:46.131Z,14.37
2018-07-02T21:58:14.306Z,15.10
2018-07-02T22:00:43.885Z,14.27
2018-07-02T22:03:12.186Z,14.97
2018-07-02T22:05:40.562Z,14.80
2018-07-02T22:08:09.289Z,15.57
2018-07-02T22:10:37.621Z,15.77
2018-07-02T22:13:05.993Z,14.57
2018-07-02T22:15:34.526Z,14.70
2018-07-02T22:18:02.860Z,15.63
2018-07-02T22:20:31.127Z,14.53
2018-07-02T22:22:59.516Z,14.77
2018-07-02T22:25:27.720Z,15.03
2018-07-02T22:27:56.166Z,15.63
2018-07-02T22:30:24.335Z,15.60
2018-07-02T22:32:52.607Z,15.30
2018-07-02T22:35:20.778Z,14.80
2018-07-02T22:37:48.714Z,15.37
2018-07-02T22:40:17.033Z,16.63
2018-07-02T22:42:45.306Z,16.00
2018-07-02T22:45:13.589Z,15.17
2018-07-02T22:47:41.849Z,16.27
2018-07-02T22:50:10.134Z,15.80
2018-07-02T22:52:38.210Z,16.70
2018-07-02T22:55:06.621Z,16.40
2018-07-02T22:57:34.858Z,15.17
2018-07-02T23:00:03.140Z,16.70
2018-07-02T23:02:31.292Z,16.40
2018-07-02T23:04:59.569Z,15.83
2018-07-02T23:07:27.858Z,17.03
2018-07-02T23:09:56.338Z,16.87
2018-07-02T23:12:24.610Z,17.53
2018-07-02T23:14:52.784Z,17.10
2018-07-02T23:17:21.266Z,16.17
2018-07-02T23:19:49.541Z,17.53
2018-07-02T23:22:17.909Z,16.23
2018-07-02T23:24:46.503Z,16.77
2018-07-02T23:27:14.777Z,16.97
2018-07-02T23:29:43.041Z,17.57
2018-07-02T23:32:11.435Z,17.30
2018-07-02T23:34:39.707Z,17.97
2018-07-02T23:37:07.982Z,16.87
2018-07-02T23:39:36.349Z,17.17
2018-07-02T23:42:04.739Z,16.37
2018-07-02T23:44:33.001Z,16.00
2018-07-02T23:47:01.159Z,16.67
2018-07-02T23:49:29.452Z,16.87
2018-07-02T23:51:57.616Z,16.67
2018-07-02T23:54:25.910Z,16.43
2018-07-02T23:56:54.279Z,15.63
2018-07-02T23:59:22.589Z,15.67
